createdAt,value
2023-04-02T00:03:22.644Z,99543.69
2023-04-02T00:08:29.879Z,99550.63
2023-04-02T00:13:36.719Z,99549.88
2023-04-02T00:18:47.138Z,99561.03
2023-04-02T00:23:50.692Z,99558.34
2023-04-02T00:28:53.693Z,99564.47
2023-04-02T00:33:57.360Z,99562.56
2023-04-02T00:39:24.389Z,99566.78
2023-04-02T00:44:29.448Z,99561.81
2023-04-02T00:49:38.395Z,99556.06
2023-04-02T00:55:01.358Z,99557.22
2023-04-02T01:00:31.359Z,99556.06
2023-04-02T01:05:36.061Z,99555.69
2023-04-02T01:10:52.373Z,99556.84
2023-04-02T01:16:05.437Z,99562.19
2023-04-02T01:21:46.257Z,99564.50
2023-04-02T01:27:23.812Z,99571.00
2023-04-02T01:32:30.288Z,99567.16
2023-04-02T01:37:45.119Z,99571.00
2023-04-02T01:43:06.643Z,99568.72
2023-04-02T01:48:24.935Z,99569.84
2023-04-02T01:53:30.946Z,99566.81
2023-04-02T01:58:34.581Z,99571.41
2023-04-02T02:03:42.844Z,99576.00
2023-04-02T02:09:07.877Z,99565.28
2023-04-02T02:14:20.986Z,99566.81
2023-04-02T02:19:47.366Z,99569.47
2023-04-02T02:24:50.712Z,99573.69
2023-04-02T02:30:02.608Z,99571.41
2023-04-02T02:35:30.021Z,99576.78
2023-04-02T02:40:43.951Z,99576.00
2023-04-02T02:45:48.434Z,99582.09
2023-04-02T02:50:52.117Z,99581.34
2023-04-02T02:56:01.426Z,99581.34
2023-04-02T03:01:10.811Z,99583.63
2023-04-02T03:06:20.999Z,99580.59
2023-04-02T03:11:39.272Z,99585.16
2023-04-02T03:16:49.476Z,99578.69
2023-04-02T03:22:14.560Z,99581.38
2023-04-02T03:27:28.539Z,99579.81
2023-04-02T03:32:39.547Z,99578.69
2023-04-02T03:37:58.989Z,99584.81
2023-04-02T03:43:13.525Z,99587.88
2023-04-02T03:48:39.515Z,99584.03
2023-04-02T03:53:44.826Z,99587.13
2023-04-02T03:58:55.877Z,99583.28
2023-04-02T04:04:09.149Z,99576.75
2023-04-02T04:09:36.009Z,99581.72
2023-04-02T04:14:45.317Z,99584.78
2023-04-02T04:20:07.982Z,99597.75
2023-04-02T04:25:29.865Z,99596.53
2023-04-02T04:31:04.222Z,99588.06
2023-04-02T04:36:28.973Z,99595.34
2023-04-02T04:41:48.480Z,99591.09
2023-04-02T04:47:01.891Z,99594.84
2023-04-02T04:52:17.093Z,99608.66
2023-04-02T04:57:38.422Z,99599.84
2023-04-02T05:03:13.829Z,99602.91
2023-04-02T05:08:27.360Z,99606.66
2023-04-02T05:14:04.441Z,99617.69
2023-04-02T05:19:19.867Z,99611.41
2023-04-02T05:24:54.019Z,99613.84
2023-04-02T05:30:24.166Z,99610.16
2023-04-02T05:35:37.048Z,99600.84
2023-04-02T05:40:46.595Z,99605.09
2023-04-02T05:45:57.008Z,99599.28
2023-04-02T05:51:25.073Z,99602.97
2023-04-02T05:56:39.401Z,99602.97
2023-04-02T06:01:52.212Z,99604.59
2023-04-02T06:07:16.838Z,99603.66
2023-04-02T06:12:50.062Z,99608.94
2023-04-02T06:18:08.207Z,99612.09
2023-04-02T06:23:11.887Z,99616.41
2023-04-02T06:28:25.969Z,99606.38
2023-04-02T06:33:30.825Z,99624.75
2023-04-02T06:38:35.632Z,99621.19
2023-04-02T06:43:47.277Z,99623.63
2023-04-02T06:49:05.541Z,99616.59
2023-04-02T06:54:15.286Z,99617.13
2023-04-02T06:59:20.546Z,99612.03
2023-04-02T07:04:24.591Z,99611.31
2023-04-02T07:09:29.538Z,99607.06
2023-04-02T07:14:36.125Z,99604.84
2023-04-02T07:19:39.177Z,99614.63
2023-04-02T07:24:42.590Z,99611.63
2023-04-02T07:29:45.616Z,99597.16
2023-04-02T07:34:49.199Z,99605.78
2023-04-02T07:39:52.242Z,99604.47
2023-04-02T07:44:55.148Z,99602.72
2023-04-02T07:49:58.099Z,99602.84
2023-04-02T07:55:19.619Z,99598.72
2023-04-02T08:00:23.941Z,99600.59
2023-04-02T08:05:28.005Z,99593.31
2023-04-02T08:10:31.137Z,99594.91
2023-04-02T08:15:34.398Z,99589.00
2023-04-02T08:20:37.888Z,99584.03
2023-04-02T08:25:59.385Z,99574.66
2023-04-02T08:31:02.536Z,99578.34
2023-04-02T08:36:05.529Z,99568.38
2023-04-02T08:41:16.025Z,99564.19
2023-04-02T08:46:37.709Z,99560.63
2023-04-02T08:51:41.576Z,99569.06
2023-04-02T08:56:53.211Z,99560.09
2023-04-02T09:02:07.903Z,99560.66
2023-04-02T09:07:16.944Z,99556.09
2023-04-02T09:12:28.000Z,99550.56
2023-04-02T09:17:42.711Z,99557.31
2023-04-02T09:22:51.646Z,99543.50
2023-04-02T09:27:57.283Z,99556.09
2023-04-02T09:33:03.055Z,99546.13
2023-04-02T09:38:32.940Z,99538.44
2023-04-02T09:43:37.888Z,99535.66
2023-04-02T09:49:03.707Z,99526.88
2023-04-02T09:54:13.982Z,99533.41
2023-04-02T09:59:19.025Z,99531.47
2023-04-02T10:04:45.133Z,99525.59
2023-04-02T10:09:58.998Z,99528.75
2023-04-02T10:15:04.401Z,99529.19
2023-04-02T10:20:26.453Z,99533.44
2023-04-02T10:26:20.576Z,99527.50
2023-04-02T10:31:27.728Z,99525.59
2023-04-02T10:36:58.045Z,99526.78
2023-04-02T10:42:29.872Z,99523.50
2023-04-02T10:47:48.745Z,99518.56
2023-04-02T10:52:56.602Z,99514.47
2023-04-02T10:58:07.830Z,99504.69
2023-04-02T11:03:23.309Z,99504.94
2023-04-02T11:08:33.607Z,99499.28
2023-04-02T11:13:42.048Z,99504.78
2023-04-02T11:19:16.873Z,99494.63
2023-04-02T11:24:33.174Z,99496.28
2023-04-02T11:29:59.869Z,99491.25
2023-04-02T11:35:23.197Z,99486.41
2023-04-02T11:40:58.155Z,99494.34
2023-04-02T11:46:06.769Z,99483.47
2023-04-02T11:51:22.649Z,99480.59
2023-04-02T11:57:05.339Z,99487.88
2023-04-02T12:02:35.220Z,99476.50
2023-04-02T12:07:52.544Z,99475.50
2023-04-02T12:12:55.595Z,99479.50
2023-04-02T12:18:11.015Z,99480.25
2023-04-02T12:23:26.689Z,99471.94
2023-04-02T12:28:31.452Z,99470.28
2023-04-02T12:33:39.858Z,99459.53
2023-04-02T12:38:55.733Z,99460.88
2023-04-02T12:43:59.852Z,99462.72
2023-04-02T12:49:06.256Z,99463.13
2023-04-02T12:54:15.449Z,99461.47
2023-04-02T12:59:31.504Z,99454.97
2023-04-02T13:04:47.830Z,99448.72
2023-04-02T13:09:59.409Z,99453.41
2023-04-02T13:15:05.123Z,99451.06
2023-04-02T13:20:32.799Z,99445.00
2023-04-02T13:25:37.184Z,99447.75
2023-04-02T13:30:40.557Z,99446.56
2023-04-02T13:35:44.274Z,99439.72
2023-04-02T13:41:48.132Z,99436.09
2023-04-02T13:47:02.756Z,99440.84
2023-04-02T13:52:10.516Z,99443.19
2023-04-02T13:57:31.911Z,99445.59
2023-04-02T14:02:34.728Z,99440.09
2023-04-02T14:08:09.156Z,99434.91
2023-04-02T14:13:37.499Z,99438.63
2023-04-02T14:19:25.297Z,99439.38
2023-04-02T14:24:46.726Z,99444.28
2023-04-02T14:30:11.189Z,99434.78
2023-04-02T14:35:32.589Z,99434.88
2023-04-02T14:41:00.055Z,99435.97
2023-04-02T14:46:04.698Z,99442.34
2023-04-02T14:51:17.715Z,99442.44
2023-04-02T14:56:24.159Z,99439.03
2023-04-02T15:01:41.538Z,99444.19
2023-04-02T15:07:22.358Z,99439.41
2023-04-02T15:12:32.021Z,99438.25
2023-04-02T15:17:36.329Z,99438.19
2023-04-02T15:22:57.402Z,99436.69
2023-04-02T15:28:35.849Z,99438.00
2023-04-02T15:33:57.228Z,99438.66
2023-04-02T15:39:06.763Z,99446.28
2023-04-02T15:44:15.254Z,99444.75
2023-04-02T15:49:24.153Z,99450.84
2023-04-02T15:55:05.125Z,99459.09
2023-04-02T16:00:15.703Z,99446.19
2023-04-02T16:05:44.614Z,99447.34
2023-04-02T16:10:47.895Z,99447.59
2023-04-02T16:15:56.506Z,99457.78
2023-04-02T16:21:03.190Z,99460.56
2023-04-02T16:26:34.002Z,99458.94
2023-04-02T16:31:45.768Z,99473.84
2023-04-02T16:37:13.121Z,99475.66
2023-04-02T16:42:24.559Z,99471.44
2023-04-02T16:47:53.421Z,99467.84
2023-04-02T16:53:07.897Z,99482.38
2023-04-02T16:58:26.659Z,99488.44
2023-04-02T17:03:47.850Z,99487.53
2023-04-02T17:09:14.862Z,99496.97
2023-04-02T17:14:39.204Z,99489.78
2023-04-02T17:19:44.960Z,99488.28
2023-04-02T17:24:59.891Z,99489.22
2023-04-02T17:30:12.873Z,99486.16
2023-04-02T17:35:23.330Z,99492.56
2023-04-02T17:40:39.366Z,99491.97
2023-04-02T17:45:54.505Z,99481.91
2023-04-02T17:51:22.078Z,99471.25
2023-04-02T17:56:54.058Z,99481.97
2023-04-02T18:02:34.774Z,99475.41
2023-04-02T18:07:49.698Z,99470.16
2023-04-02T18:13:03.481Z,99470.56
2023-04-02T18:18:40.259Z,99476.75
2023-04-02T18:23:55.579Z,99472.91
2023-04-02T18:29:25.639Z,99461.03
2023-04-02T18:35:02.346Z,99468.13
2023-04-02T18:40:14.955Z,99466.44
2023-04-02T18:46:13.157Z,99473.13
2023-04-02T18:51:22.659Z,99461.69
2023-04-02T18:56:27.073Z,99459.63
2023-04-02T19:01:39.253Z,99456.06
2023-04-02T19:06:47.261Z,99450.72
2023-04-02T19:11:53.132Z,99448.59
2023-04-02T19:17:20.439Z,99453.22
2023-04-02T19:22:30.344Z,99447.28
2023-04-02T19:27:58.279Z,99444.22
2023-04-02T19:33:28.470Z,99435.03
2023-04-02T19:38:49.586Z,99435.22
2023-04-02T19:43:53.402Z,99437.16
2023-04-02T19:49:23.099Z,99429.00
2023-04-02T19:54:26.023Z,99428.31
2023-04-02T19:59:28.868Z,99423.72
2023-04-02T20:04:31.887Z,99424.56
2023-04-02T20:09:35.185Z,99427.56
2023-04-02T20:14:38.224Z,99420.75
2023-04-02T20:19:41.561Z,99417.41
2023-04-02T20:24:44.397Z,99418.59
2023-04-02T20:29:48.254Z,99403.44
2023-04-02T20:34:51.025Z,99409.97
2023-04-02T20:39:54.010Z,99413.91
2023-04-02T20:44:56.933Z,99416.13
2023-04-02T20:49:59.850Z,99408.34
2023-04-02T20:55:03.789Z,99407.44
2023-04-02T21:00:08.441Z,99408.13
2023-04-02T21:05:11.380Z,99408.59
2023-04-02T21:10:14.625Z,99406.81
2023-04-02T21:15:17.610Z,99399.44
2023-04-02T21:20:20.455Z,99410.28
2023-04-02T21:25:23.302Z,99400.28
2023-04-02T21:30:26.331Z,99399.94
2023-04-02T21:35:29.210Z,99394.59
2023-04-02T21:40:31.950Z,99388.16
2023-04-02T21:45:35.051Z,99394.72
2023-04-02T21:50:38.363Z,99384.75
2023-04-02T21:56:05.305Z,99384.03
2023-04-02T22:01:14.044Z,99379.47
2023-04-02T22:06:25.406Z,99374.50
2023-04-02T22:11:31.560Z,99380.59
2023-04-02T22:16:35.950Z,99375.75
2023-04-02T22:21:39.679Z,99367.13
2023-04-02T22:26:43.361Z,99370.38
2023-04-02T22:31:46.399Z,99366.25
2023-04-02T22:36:49.350Z,99360.44
2023-04-02T22:41:52.342Z,99367.00
2023-04-02T22:46:55.163Z,99367.13
2023-04-02T22:51:58.096Z,99367.88
2023-04-02T22:57:01.057Z,99368.22
2023-04-02T23:02:03.960Z,99360.44
2023-04-02T23:07:07.002Z,99354.22
2023-04-02T23:12:10.149Z,99350.09
2023-04-02T23:17:13.238Z,99340.53
2023-04-02T23:22:16.227Z,99335.75
2023-04-02T23:27:19.189Z,99343.94
2023-04-02T23:32:22.118Z,99336.69
2023-04-02T23:37:25.105Z,99348.72
2023-04-02T23:42:28.481Z,99348.66
2023-04-02T23:47:31.332Z,99344.72
2023-04-02T23:52:34.213Z,99344.19
2023-04-02T23:57:37.066Z,99349.00
